sensor_id;sensor_type;location;lat;lon;timestamp;pressure;altitude;pressure_sealevel;temperature;humidity
51759;BME280;66684;47.568;18.734;2024-02-15T00:01:02;100193.53;;;5.06;100.00
51759;BME280;66684;47.568;18.734;2024-02-15T00:03:30;100188.75;;;4.99;100.00
51759;BME280;66684;47.568;18.734;2024-02-15T00:05:57;100183.81;;;5.02;100.00
51759;BME280;66684;47.568;18.734;2024-02-15T00:08:23;100192.53;;;5.16;100.00
51759;BME280;66684;47.568;18.734;2024-02-15T00:10:50;100187.16;;;5.24;100.00
51759;BME280;66684;47.568;18.734;2024-02-15T00:13:16;100188.91;;;5.25;100.00
51759;BME280;66684;47.568;18.734;2024-02-15T00:15:42;100187.16;;;5.24;100.00
51759;BME280;66684;47.568;18.734;2024-02-15T00:18:07;100194.91;;;5.37;100.00
51759;BME280;66684;47.568;18.734;2024-02-15T00:20:33;100196.22;;;5.44;100.00
51759;BME280;66684;47.568;18.734;2024-02-15T00:22:59;100196.03;;;5.41;100.00
51759;BME280;66684;47.568;18.734;2024-02-15T00:25:25;100195.78;;;5.38;100.00
51759;BME280;66684;47.568;18.734;2024-02-15T00:27:51;100195.34;;;5.44;100.00
51759;BME280;66684;47.568;18.734;2024-02-15T00:30:17;100194.22;;;5.40;100.00
51759;BME280;66684;47.568;18.734;2024-02-15T00:32:43;100188.47;;;5.19;100.00
51759;BME280;66684;47.568;18.734;2024-02-15T00:35:11;100193.84;;;5.10;100.00
51759;BME280;66684;47.568;18.734;2024-02-15T00:37:40;100189.44;;;4.84;100.00
51759;BME280;66684;47.568;18.734;2024-02-15T00:40:06;100194.56;;;4.84;100.00
51759;BME280;66684;47.568;18.734;2024-02-15T00:42:32;100186.97;;;4.98;100.00
51759;BME280;66684;47.568;18.734;2024-02-15T00:44:58;100193.63;;;5.07;100.00
51759;BME280;66684;47.568;18.734;2024-02-15T00:47:24;100187.84;;;5.10;100.00
51759;BME280;66684;47.568;18.734;2024-02-15T00:49:50;100183.78;;;5.25;100.00
51759;BME280;66684;47.568;18.734;2024-02-15T00:52:17;100188.91;;;5.25;100.00
51759;BME280;66684;47.568;18.734;2024-02-15T00:54:46;100187.16;;;5.24;100.00
51759;BME280;66684;47.568;18.734;2024-02-15T00:57:11;100192.47;;;5.27;100.00
51759;BME280;66684;47.568;18.734;2024-02-15T00:59:37;100184.59;;;5.24;100.00
51759;BME280;66684;47.568;18.734;2024-02-15T01:02:03;100192.03;;;5.21;100.00
51759;BME280;66684;47.568;18.734;2024-02-15T01:04:31;100182.03;;;5.12;100.00
51759;BME280;66684;47.568;18.734;2024-02-15T01:06:56;100186.78;;;5.31;100.00
51759;BME280;66684;47.568;18.734;2024-02-15T01:09:23;100187.56;;;5.30;100.00
51759;BME280;66684;47.568;18.734;2024-02-15T01:11:49;100186.69;;;5.30;100.00
51759;BME280;66684;47.568;18.734;2024-02-15T01:14:15;100190.50;;;5.23;100.00
51759;BME280;66684;47.568;18.734;2024-02-15T01:16:44;100185.72;;;5.16;100.00
51759;BME280;66684;47.568;18.734;2024-02-15T01:19:10;100188.41;;;5.06;100.00
51759;BME280;66684;47.568;18.734;2024-02-15T01:21:36;100185.94;;;5.07;100.00
51759;BME280;66684;47.568;18.734;2024-02-15T01:24:02;100191.59;;;5.15;100.00
51759;BME280;66684;47.568;18.734;2024-02-15T01:26:29;100185.84;;;5.06;100.00
51759;BME280;66684;47.568;18.734;2024-02-15T01:28:58;100186.97;;;4.98;100.00
51759;BME280;66684;47.568;18.734;2024-02-15T01:31:24;100184.50;;;4.87;100.00
51759;BME280;66684;47.568;18.734;2024-02-15T01:33:50;100184.16;;;4.95;100.00
51759;BME280;66684;47.568;18.734;2024-02-15T01:36:16;100193.22;;;4.66;100.00
51759;BME280;66684;47.568;18.734;2024-02-15T01:38:43;100192.47;;;4.33;100.00
51759;BME280;66684;47.568;18.734;2024-02-15T01:41:10;100192.06;;;4.27;100.00
51759;BME280;66684;47.568;18.734;2024-02-15T01:43:36;100182.63;;;4.50;100.00
51759;BME280;66684;47.568;18.734;2024-02-15T01:46:09;100175.38;;;4.56;100.00
51759;BME280;66684;47.568;18.734;2024-02-15T01:48:37;100179.63;;;4.67;100.00
51759;BME280;66684;47.568;18.734;2024-02-15T01:51:03;100172.94;;;4.69;100.00
51759;BME280;66684;47.568;18.734;2024-02-15T01:53:30;100180.97;;;4.74;100.00
51759;BME280;66684;47.568;18.734;2024-02-15T01:55:57;100177.16;;;4.69;100.00
51759;BME280;66684;47.568;18.734;2024-02-15T01:58:26;100171.81;;;4.77;100.00
51759;BME280;66684;47.568;18.734;2024-02-15T02:00:53;100176.94;;;4.77;100.00
51759;BME280;66684;47.568;18.734;2024-02-15T02:03:22;100167.81;;;4.69;100.00
51759;BME280;66684;47.568;18.734;2024-02-15T02:05:48;100175.41;;;4.68;100.00
51759;BME280;66684;47.568;18.734;2024-02-15T02:08:14;100168.94;;;4.73;100.00
51759;BME280;66684;47.568;18.734;2024-02-15T02:10:40;100171.84;;;4.66;100.00
51759;BME280;66684;47.568;18.734;2024-02-15T02:13:06;100169.16;;;4.64;100.00
51759;BME280;66684;47.568;18.734;2024-02-15T02:15:32;100169.16;;;4.64;100.00
51759;BME280;66684;47.568;18.734;2024-02-15T02:17:59;100169.37;;;4.55;100.00
51759;BME280;66684;47.568;18.734;2024-02-15T02:20:26;100172.47;;;4.51;100.00
51759;BME280;66684;47.568;18.734;2024-02-15T02:22:54;100161.81;;;4.57;100.00
51759;BME280;66684;47.568;18.734;2024-02-15T02:25:24;100164.03;;;4.64;100.00
51759;BME280;66684;47.568;18.734;2024-02-15T02:27:53;100163.28;;;4.65;100.00
51759;BME280;66684;47.568;18.734;2024-02-15T02:30:20;100160.47;;;4.74;100.00
51759;BME280;66684;47.568;18.734;2024-02-15T02:32:48;100155.69;;;4.67;100.00
51759;BME280;66684;47.568;18.734;2024-02-15T02:35:14;100161.38;;;4.74;100.00
51759;BME280;66684;47.568;18.734;2024-02-15T02:37:42;100162.16;;;4.73;100.00
51759;BME280;66684;47.568;18.734;2024-02-15T02:40:09;100164.91;;;4.76;100.00
51759;BME280;66684;47.568;18.734;2024-02-15T02:42:36;100164.72;;;4.73;100.00
51759;BME280;66684;47.568;18.734;2024-02-15T02:45:11;100163.69;;;4.71;100.00
51759;BME280;66684;47.568;18.734;2024-02-15T02:47:37;100157.81;;;4.72;100.00
51759;BME280;66684;47.568;18.734;2024-02-15T02:50:03;100156.69;;;4.80;100.00
51759;BME280;66684;47.568;18.734;2024-02-15T02:52:29;100164.91;;;4.76;100.00
51759;BME280;66684;47.568;18.734;2024-02-15T02:54:55;100166.81;;;4.67;100.00
51759;BME280;66684;47.568;18.734;2024-02-15T02:57:21;100157.38;;;4.66;100.00
51759;BME280;66684;47.568;18.734;2024-02-15T02:59:47;100160.13;;;4.69;100.00
51759;BME280;66684;47.568;18.734;2024-02-15T03:02:13;100162.69;;;4.57;100.00
51759;BME280;66684;47.568;18.734;2024-02-15T03:04:38;100161.81;;;4.57;100.00
51759;BME280;66684;47.568;18.734;2024-02-15T03:07:05;100160.13;;;4.46;100.00
51759;BME280;66684;47.568;18.734;2024-02-15T03:09:31;100158.03;;;4.40;100.00
51759;BME280;66684;47.568;18.734;2024-02-15T03:11:59;100160.47;;;4.39;100.00
51759;BME280;66684;47.568;18.734;2024-02-15T03:14:26;100165.03;;;4.43;100.00
51759;BME280;66684;47.568;18.734;2024-02-15T03:16:55;100160.47;;;4.39;100.00
51759;BME280;66684;47.568;18.734;2024-02-15T03:19:21;100157.91;;;4.39;100.00
51759;BME280;66684;47.568;18.734;2024-02-15T03:21:48;100165.56;;;4.27;100.00
51759;BME280;66684;47.568;18.734;2024-02-15T03:24:14;100164.53;;;4.13;100.00
51759;BME280;66684;47.568;18.734;2024-02-15T03:26:40;100160.22;;;4.24;100.00
51759;BME280;66684;47.568;18.734;2024-02-15T03:29:26;100156.66;;;4.33;100.00
51759;BME280;66684;47.568;18.734;2024-02-15T03:31:52;100159.22;;;4.33;100.00
51759;BME280;66684;47.568;18.734;2024-02-15T03:34:20;100168.00;;;4.25;100.00
51759;BME280;66684;47.568;18.734;2024-02-15T03:36:47;100165.69;;;4.28;100.00
51759;BME280;66684;47.568;18.734;2024-02-15T03:39:19;100167.34;;;4.40;100.00
51759;BME280;66684;47.568;18.734;2024-02-15T03:41:45;100167.06;;;4.47;100.00
51759;BME280;66684;47.568;18.734;2024-02-15T03:44:12;100159.59;;;4.50;100.00
51759;BME280;66684;47.568;18.734;2024-02-15T03:46:38;100158.16;;;4.53;100.00
51759;BME280;66684;47.568;18.734;2024-02-15T03:49:04;100164.28;;;4.67;100.00
51759;BME280;66684;47.568;18.734;2024-02-15T03:51:29;100163.59;;;4.70;100.00
51759;BME280;66684;47.568;18.734;2024-02-15T03:53:57;100163.94;;;4.63;100.00
51759;BME280;66684;47.568;18.734;2024-02-15T03:56:23;100158.25;;;4.55;100.00
51759;BME280;66684;47.568;18.734;2024-02-15T03:58:49;100160.03;;;4.56;100.00
51759;BME280;66684;47.568;18.734;2024-02-15T04:01:16;100160.25;;;4.36;100.00
51759;BME280;66684;47.568;18.734;2024-02-15T04:03:42;100155.78;;;4.33;100.00
51759;BME280;66684;47.568;18.734;2024-02-15T04:06:08;100156.66;;;4.33;100.00
51759;BME280;66684;47.568;18.734;2024-02-15T04:08:36;100166.03;;;4.45;100.00
51759;BME280;66684;47.568;18.734;2024-02-15T04:11:05;100167.81;;;4.34;100.00
51759;BME280;66684;47.568;18.734;2024-02-15T04:13:33;100163.81;;;4.38;100.00
51759;BME280;66684;47.568;18.734;2024-02-15T04:15:59;100167.59;;;4.43;100.00
51759;BME280;66684;47.568;18.734;2024-02-15T04:18:25;100168.38;;;4.53;100.00
51759;BME280;66684;47.568;18.734;2024-02-15T04:20:51;100177.84;;;4.54;100.00
51759;BME280;66684;47.568;18.734;2024-02-15T04:23:17;100181.41;;;4.68;100.00
51759;BME280;66684;47.568;18.734;2024-02-15T04:25:44;100171.38;;;4.71;100.00
51759;BME280;66684;47.568;18.734;2024-02-15T04:28:16;100171.72;;;4.64;100.00
51759;BME280;66684;47.568;18.734;2024-02-15T04:30:42;100178.50;;;4.87;100.00
51759;BME280;66684;47.568;18.734;2024-02-15T04:33:08;100167.25;;;4.50;100.00
51759;BME280;66684;47.568;18.734;2024-02-15T04:35:34;100168.03;;;4.49;100.00
51759;BME280;66684;47.568;18.734;2024-02-15T04:38:01;100172.28;;;4.60;100.00
51759;BME280;66684;47.568;18.734;2024-02-15T04:40:27;100176.72;;;4.98;100.00
51759;BME280;66684;47.568;18.734;2024-02-15T04:42:52;100165.47;;;4.96;100.00
51759;BME280;66684;47.568;18.734;2024-02-15T04:45:19;100166.16;;;4.70;100.00
51759;BME280;66684;47.568;18.734;2024-02-15T04:47:47;100163.16;;;4.75;100.00
51759;BME280;66684;47.568;18.734;2024-02-15T04:50:17;100166.72;;;4.54;100.00
51759;BME280;66684;47.568;18.734;2024-02-15T04:52:44;100173.50;;;4.65;100.00
51759;BME280;66684;47.568;18.734;2024-02-15T04:55:11;100173.38;;;4.75;100.00
51759;BME280;66684;47.568;18.734;2024-02-15T04:57:38;100176.84;;;4.87;100.00
51759;BME280;66684;47.568;18.734;2024-02-15T05:00:07;100182.41;;;4.94;100.00
51759;BME280;66684;47.568;18.734;2024-02-15T05:02:38;100175.06;;;4.86;100.00
51759;BME280;66684;47.568;18.734;2024-02-15T05:05:11;100177.19;;;4.80;100.00
51759;BME280;66684;47.568;18.734;2024-02-15T05:07:38;100168.94;;;4.73;100.00
51759;BME280;66684;47.568;18.734;2024-02-15T05:10:09;100171.38;;;4.71;100.00
51759;BME280;66684;47.568;18.734;2024-02-15T05:12:37;100176.94;;;4.77;100.00
51759;BME280;66684;47.568;18.734;2024-02-15T05:15:03;100165.38;;;4.82;100.00
51759;BME280;66684;47.568;18.734;2024-02-15T05:17:39;100175.06;;;4.86;100.00
51759;BME280;66684;47.568;18.734;2024-02-15T05:20:09;100178.06;;;4.93;100.00
51759;BME280;66684;47.568;18.734;2024-02-15T05:22:39;100178.41;;;4.97;100.00
51759;BME280;66684;47.568;18.734;2024-02-15T05:25:06;100175.69;;;4.96;100.00
51759;BME280;66684;47.568;18.734;2024-02-15T05:27:34;100179.16;;;4.96;100.00
51759;BME280;66684;47.568;18.734;2024-02-15T05:30:00;100184.62;;;4.89;100.00
51759;BME280;66684;47.568;18.734;2024-02-15T05:32:26;100185.94;;;4.96;100.00
51759;BME280;66684;47.568;18.734;2024-02-15T05:34:53;100179.37;;;4.87;100.00
51759;BME280;66684;47.568;18.734;2024-02-15T05:37:20;100176.50;;;4.71;100.00
51759;BME280;66684;47.568;18.734;2024-02-15T05:39:48;100182.97;;;4.78;100.00
51759;BME280;66684;47.568;18.734;2024-02-15T05:42:17;100182.06;;;4.77;100.00
51759;BME280;66684;47.568;18.734;2024-02-15T05:44:43;100182.75;;;4.75;100.00
51759;BME280;66684;47.568;18.734;2024-02-15T05:47:08;100190.53;;;4.76;100.00
51759;BME280;66684;47.568;18.734;2024-02-15T05:49:34;100193.75;;;4.62;100.00
51759;BME280;66684;47.568;18.734;2024-02-15T05:52:00;100184.41;;;4.63;100.00
51759;BME280;66684;47.568;18.734;2024-02-15T05:54:26;100192.97;;;4.63;100.00
51759;BME280;66684;47.568;18.734;2024-02-15T05:56:52;100198.53;;;4.81;100.00
51759;BME280;66684;47.568;18.734;2024-02-15T05:59:19;100197.22;;;4.98;100.00
51759;BME280;66684;47.568;18.734;2024-02-15T06:01:46;100198.53;;;4.93;100.00
51759;BME280;66684;47.568;18.734;2024-02-15T06:04:15;100199.09;;;4.88;100.00
51759;BME280;66684;47.568;18.734;2024-02-15T06:06:41;100208.53;;;5.13;100.00
51759;BME280;66684;47.568;18.734;2024-02-15T06:09:08;100205.88;;;4.76;100.00
51759;BME280;66684;47.568;18.734;2024-02-15T06:11:34;100206.31;;;4.47;100.00
51759;BME280;66684;47.568;18.734;2024-02-15T06:14:01;100203.91;;;4.72;100.00
51759;BME280;66684;47.568;18.734;2024-02-15T06:16:27;100210.81;;;4.97;100.00
51759;BME280;66684;47.568;18.734;2024-02-15T06:18:53;100217.69;;;4.98;100.00
51759;BME280;66684;47.568;18.734;2024-02-15T06:21:20;100213.47;;;5.10;100.00
51759;BME280;66684;47.568;18.734;2024-02-15T06:23:46;100211.69;;;4.85;100.00
51759;BME280;66684;47.568;18.734;2024-02-15T06:26:14;100215.34;;;4.77;100.00
51759;BME280;66684;47.568;18.734;2024-02-15T06:28:39;100209.78;;;4.59;100.00
51759;BME280;66684;47.568;18.734;2024-02-15T06:31:24;100214.78;;;4.70;100.00
51759;BME280;66684;47.568;18.734;2024-02-15T06:34:09;100218.22;;;5.17;100.00
51759;BME280;66684;47.568;18.734;2024-02-15T06:36:55;100215.56;;;5.04;100.00
51759;BME280;66684;47.568;18.734;2024-02-15T06:39:40;100213.91;;;5.04;100.00
51759;BME280;66684;47.568;18.734;2024-02-15T06:42:14;100212.50;;;5.33;100.00
51759;BME280;66684;47.568;18.734;2024-02-15T06:44:43;100217.41;;;5.41;100.00
51759;BME280;66684;47.568;18.734;2024-02-15T06:47:09;100212.84;;;5.37;100.00
51759;BME280;66684;47.568;18.734;2024-02-15T06:49:39;100218.75;;;5.48;100.00
51759;BME280;66684;47.568;18.734;2024-02-15T06:52:06;100216.81;;;5.46;100.00
51759;BME280;66684;47.568;18.734;2024-02-15T06:54:34;100222.19;;;5.49;100.00
51759;BME280;66684;47.568;18.734;2024-02-15T06:57:02;100219.69;;;5.62;100.00
51759;BME280;66684;47.568;18.734;2024-02-15T06:59:28;100227.03;;;5.69;100.00
51759;BME280;66684;47.568;18.734;2024-02-15T07:01:54;100231.00;;;5.77;100.00
51759;BME280;66684;47.568;18.734;2024-02-15T07:04:20;100224.34;;;5.79;100.00
51759;BME280;66684;47.568;18.734;2024-02-15T07:06:47;100232.44;;;5.85;100.00
51759;BME280;66684;47.568;18.734;2024-02-15T07:09:14;100232.22;;;5.94;100.00
51759;BME280;66684;47.568;18.734;2024-02-15T07:11:45;100234.88;;;5.95;100.00
51759;BME280;66684;47.568;18.734;2024-02-15T07:14:15;100236.66;;;5.97;100.00
51759;BME280;66684;47.568;18.734;2024-02-15T07:16:48;100235.91;;;5.98;100.00
51759;BME280;66684;47.568;18.734;2024-02-15T07:19:15;100234.31;;;6.00;100.00
51759;BME280;66684;47.568;18.734;2024-02-15T07:21:41;100232.41;;;5.97;100.00
51759;BME280;66684;47.568;18.734;2024-02-15T07:24:07;100242.19;;;6.03;100.00
51759;BME280;66684;47.568;18.734;2024-02-15T07:26:33;100242.56;;;5.95;100.00
51759;BME280;66684;47.568;18.734;2024-02-15T07:29:02;100237.06;;;6.03;100.00
51759;BME280;66684;47.568;18.734;2024-02-15T07:31:32;100238.13;;;6.18;100.00
51759;BME280;66684;47.568;18.734;2024-02-15T07:33:59;100229.53;;;6.17;100.00
51759;BME280;66684;47.568;18.734;2024-02-15T07:36:25;100227.69;;;6.28;100.00
51759;BME280;66684;47.568;18.734;2024-02-15T07:38:52;100228.47;;;6.27;100.00
51759;BME280;66684;47.568;18.734;2024-02-15T07:41:26;100227.41;;;5.99;100.00
51759;BME280;66684;47.568;18.734;2024-02-15T07:43:53;100231.28;;;6.05;100.00
51759;BME280;66684;47.568;18.734;2024-02-15T07:46:21;100231.88;;;6.14;100.00
51759;BME280;66684;47.568;18.734;2024-02-15T07:48:47;100232.72;;;6.27;100.00
51759;BME280;66684;47.568;18.734;2024-02-15T07:51:17;100230.50;;;6.44;100.00
51759;BME280;66684;47.568;18.734;2024-02-15T07:53:47;100235.25;;;6.52;100.00
51759;BME280;66684;47.568;18.734;2024-02-15T07:56:13;100241.50;;;6.55;100.00
51759;BME280;66684;47.568;18.734;2024-02-15T07:58:41;100247.56;;;6.82;100.00
51759;BME280;66684;47.568;18.734;2024-02-15T08:01:08;100246.97;;;6.73;100.00
51759;BME280;66684;47.568;18.734;2024-02-15T08:03:37;100233.81;;;6.68;100.00
51759;BME280;66684;47.568;18.734;2024-02-15T08:06:03;100242.41;;;6.82;100.00
51759;BME280;66684;47.568;18.734;2024-02-15T08:08:33;100248.34;;;6.94;100.00
51759;BME280;66684;47.568;18.734;2024-02-15T08:11:02;100245.00;;;6.95;100.00
51759;BME280;66684;47.568;18.734;2024-02-15T08:13:28;100245.00;;;6.95;100.00
51759;BME280;66684;47.568;18.734;2024-02-15T08:15:55;100240.25;;;7.01;100.00
51759;BME280;66684;47.568;18.734;2024-02-15T08:18:21;100245.38;;;7.01;100.00
51759;BME280;66684;47.568;18.734;2024-02-15T08:20:47;100239.75;;;7.07;100.00
51759;BME280;66684;47.568;18.734;2024-02-15T08:23:13;100242.91;;;7.03;100.00
51759;BME280;66684;47.568;18.734;2024-02-15T08:25:39;100247.97;;;7.01;100.00
51759;BME280;66684;47.568;18.734;2024-02-15T08:28:06;100248.75;;;7.00;100.00
51759;BME280;66684;47.568;18.734;2024-02-15T08:30:33;100246.97;;;7.13;100.00
51759;BME280;66684;47.568;18.734;2024-02-15T08:32:59;100245.78;;;7.21;100.00
51759;BME280;66684;47.568;18.734;2024-02-15T08:35:25;100253.28;;;7.31;100.00
51759;BME280;66684;47.568;18.734;2024-02-15T08:37:51;100247.53;;;7.35;100.00
51759;BME280;66684;47.568;18.734;2024-02-15T08:40:18;100254.25;;;7.46;100.00
51759;BME280;66684;47.568;18.734;2024-02-15T08:42:45;100254.47;;;7.49;100.00
51759;BME280;66684;47.568;18.734;2024-02-15T08:45:11;100261.72;;;7.70;100.00
51759;BME280;66684;47.568;18.734;2024-02-15T08:47:39;100255.62;;;7.68;100.00
51759;BME280;66684;47.568;18.734;2024-02-15T08:50:05;100257.84;;;7.76;100.00
51759;BME280;66684;47.568;18.734;2024-02-15T08:52:31;100262.88;;;7.88;100.00
51759;BME280;66684;47.568;18.734;2024-02-15T08:54:57;100257.53;;;7.85;100.00
51759;BME280;66684;47.568;18.734;2024-02-15T08:57:24;100257.53;;;7.85;100.00
51759;BME280;66684;47.568;18.734;2024-02-15T08:59:52;100259.50;;;7.89;100.00
51759;BME280;66684;47.568;18.734;2024-02-15T09:02:18;100257.72;;;7.88;100.00
51759;BME280;66684;47.568;18.734;2024-02-15T09:04:44;100265.81;;;7.94;100.00
51759;BME280;66684;47.568;18.734;2024-02-15T09:07:10;100257.22;;;7.94;100.00
51759;BME280;66684;47.568;18.734;2024-02-15T09:09:36;100247.31;;;8.00;100.00
51759;BME280;66684;47.568;18.734;2024-02-15T09:12:03;100253.50;;;8.03;100.00
51759;BME280;66684;47.568;18.734;2024-02-15T09:14:32;100260.44;;;8.04;100.00
51759;BME280;66684;47.568;18.734;2024-02-15T09:17:01;100253.72;;;8.06;100.00
51759;BME280;66684;47.568;18.734;2024-02-15T09:19:33;100252.91;;;8.07;100.00
51759;BME280;66684;47.568;18.734;2024-02-15T09:22:00;100248.94;;;8.13;100.00
51759;BME280;66684;47.568;18.734;2024-02-15T09:24:26;100253.81;;;8.36;100.00
51759;BME280;66684;47.568;18.734;2024-02-15T09:26:53;100257.28;;;8.51;100.00
51759;BME280;66684;47.568;18.734;2024-02-15T09:29:19;100262.53;;;8.53;100.00
51759;BME280;66684;47.568;18.734;2024-02-15T09:31:47;100257.87;;;8.47;100.00
51759;BME280;66684;47.568;18.734;2024-02-15T09:34:13;100251.69;;;8.73;100.00
51759;BME280;66684;47.568;18.734;2024-02-15T09:36:39;100257.22;;;8.94;100.00
51759;BME280;66684;47.568;18.734;2024-02-15T09:39:05;100247.78;;;8.80;100.00
51759;BME280;66684;47.568;18.734;2024-02-15T09:41:32;100249.56;;;8.96;100.00
51759;BME280;66684;47.568;18.734;2024-02-15T09:43:59;100251.34;;;8.97;100.00
51759;BME280;66684;47.568;18.734;2024-02-15T09:46:27;100256.91;;;9.04;100.00
51759;BME280;66684;47.568;18.734;2024-02-15T09:48:55;100259.34;;;9.01;100.00
51759;BME280;66684;47.568;18.734;2024-02-15T09:51:25;100253.44;;;9.04;100.00
51759;BME280;66684;47.568;18.734;2024-02-15T09:53:52;100253.09;;;8.98;100.00
51759;BME280;66684;47.568;18.734;2024-02-15T09:56:21;100256.12;;;9.05;100.00
51759;BME280;66684;47.568;18.734;2024-02-15T09:58:50;100253.78;;;9.10;100.00
51759;BME280;66684;47.568;18.734;2024-02-15T10:01:19;100252.03;;;9.09;100.00
51759;BME280;66684;47.568;18.734;2024-02-15T10:03:49;100264.66;;;9.19;100.00
51759;BME280;66684;47.568;18.734;2024-02-15T10:06:17;100253.38;;;9.02;100.00
51759;BME280;66684;47.568;18.734;2024-02-15T10:08:44;100247.94;;;9.12;100.00
51759;BME280;66684;47.568;18.734;2024-02-15T10:11:10;100246.69;;;9.21;100.00
51759;BME280;66684;47.568;18.734;2024-02-15T10:13:36;100242.22;;;9.33;100.00
51759;BME280;66684;47.568;18.734;2024-02-15T10:18:41;100246.44;;;9.47;100.00
51759;BME280;66684;47.568;18.734;2024-02-15T10:21:07;100243.38;;;9.54;100.00
51759;BME280;66684;47.568;18.734;2024-02-15T10:23:33;100239.69;;;9.65;100.00
51759;BME280;66684;47.568;18.734;2024-02-15T10:26:00;100238.69;;;9.47;100.00
51759;BME280;66684;47.568;18.734;2024-02-15T10:28:44;100239.69;;;9.49;100.00
51759;BME280;66684;47.568;18.734;2024-02-15T10:31:10;100234.78;;;9.70;100.00
51759;BME280;66684;47.568;18.734;2024-02-15T10:33:38;100237.47;;;10.04;99.77
51759;BME280;66684;47.568;18.734;2024-02-15T10:36:06;100237.22;;;10.16;98.36
51759;BME280;66684;47.568;18.734;2024-02-15T10:38:33;100233.37;;;10.24;96.54
51759;BME280;66684;47.568;18.734;2024-02-15T10:41:04;100236.87;;;10.24;94.24
51759;BME280;66684;47.568;18.734;2024-02-15T10:43:32;100225.38;;;10.36;93.21
51759;BME280;66684;47.568;18.734;2024-02-15T10:45:59;100231.34;;;10.51;92.41
51759;BME280;66684;47.568;18.734;2024-02-15T10:48:26;100229.50;;;10.66;90.87
51759;BME280;66684;47.568;18.734;2024-02-15T10:50:56;100220.88;;;10.66;89.71
51759;BME280;66684;47.568;18.734;2024-02-15T10:53:28;100230.91;;;10.60;89.27
51759;BME280;66684;47.568;18.734;2024-02-15T10:56:15;100219.97;;;10.65;90.52
51759;BME280;66684;47.568;18.734;2024-02-15T10:58:50;100222.56;;;10.65;88.81
51759;BME280;66684;47.568;18.734;2024-02-15T11:01:18;100223.53;;;10.67;89.75
51759;BME280;66684;47.568;18.734;2024-02-15T11:03:51;100222.06;;;10.72;87.89
51759;BME280;66684;47.568;18.734;2024-02-15T11:06:20;100220.59;;;10.77;89.09
51759;BME280;66684;47.568;18.734;2024-02-15T11:08:48;100221.19;;;10.90;90.92
51759;BME280;66684;47.568;18.734;2024-02-15T11:11:14;100222.97;;;10.91;89.97
51759;BME280;66684;47.568;18.734;2024-02-15T11:13:41;100213.22;;;10.85;88.22
51759;BME280;66684;47.568;18.734;2024-02-15T11:16:08;100215.16;;;10.89;90.75
51759;BME280;66684;47.568;18.734;2024-02-15T11:18:45;100216.31;;;10.78;89.33
51759;BME280;66684;47.568;18.734;2024-02-15T11:21:15;100209.78;;;10.68;90.76
51759;BME280;66684;47.568;18.734;2024-02-15T11:23:41;100210.78;;;10.70;89.38
51759;BME280;66684;47.568;18.734;2024-02-15T11:26:45;100206.41;;;10.69;89.11
51759;BME280;66684;47.568;18.734;2024-02-15T11:29:50;100209.66;;;10.65;89.55
51759;BME280;66684;47.568;18.734;2024-02-15T11:32:41;100202.09;;;10.52;92.06
51759;BME280;66684;47.568;18.734;2024-02-15T11:35:14;100201.25;;;10.69;92.00
51759;BME280;66684;47.568;18.734;2024-02-15T11:40:15;100197.47;;;10.80;90.29
51759;BME280;66684;47.568;18.734;2024-02-15T11:42:40;100197.13;;;10.91;92.52
51759;BME280;66684;47.568;18.734;2024-02-15T11:45:07;100190.09;;;10.88;91.55
51759;BME280;66684;47.568;18.734;2024-02-15T11:47:38;100184.13;;;10.89;90.83
51759;BME280;66684;47.568;18.734;2024-02-15T11:50:09;100190.59;;;10.99;92.51
51759;BME280;66684;47.568;18.734;2024-02-15T11:52:44;100188.25;;;11.03;91.16
51759;BME280;66684;47.568;18.734;2024-02-15T11:55:12;100188.06;;;11.18;93.23
51759;BME280;66684;47.568;18.734;2024-02-15T11:57:41;100188.06;;;11.18;91.17
51759;BME280;66684;47.568;18.734;2024-02-15T12:00:23;100184.13;;;11.07;94.42
51759;BME280;66684;47.568;18.734;2024-02-15T12:03:09;100176.72;;;10.97;94.70
51759;BME280;66684;47.568;18.734;2024-02-15T12:05:54;100182.47;;;10.91;97.10
51759;BME280;66684;47.568;18.734;2024-02-15T12:08:41;100189.81;;;10.82;98.27
51759;BME280;66684;47.568;18.734;2024-02-15T12:11:27;100180.97;;;10.61;96.93
51759;BME280;66684;47.568;18.734;2024-02-15T12:14:13;100174.94;;;10.60;97.30
51759;BME280;66684;47.568;18.734;2024-02-15T12:17:11;100180.41;;;10.66;96.77
51759;BME280;66684;47.568;18.734;2024-02-15T12:19:59;100179.59;;;10.67;97.21
51759;BME280;66684;47.568;18.734;2024-02-15T12:22:35;100175.59;;;10.74;97.11
51759;BME280;66684;47.568;18.734;2024-02-15T12:25:06;100180.72;;;10.90;97.29
51759;BME280;66684;47.568;18.734;2024-02-15T12:27:38;100176.13;;;10.85;96.36
51759;BME280;66684;47.568;18.734;2024-02-15T12:30:05;100173.03;;;10.92;96.61
51759;BME280;66684;47.568;18.734;2024-02-15T12:32:32;100177.91;;;10.86;98.04
51759;BME280;66684;47.568;18.734;2024-02-15T12:35:12;100177.59;;;10.79;98.24
51759;BME280;66684;47.568;18.734;2024-02-15T12:37:43;100174.06;;;10.77;98.43
51759;BME280;66684;47.568;18.734;2024-02-15T12:40:13;100174.19;;;10.80;98.82
51759;BME280;66684;47.568;18.734;2024-02-15T12:42:44;100174.22;;;10.63;98.51
51759;BME280;66684;47.568;18.734;2024-02-15T12:45:17;100173.28;;;10.62;98.84
51759;BME280;66684;47.568;18.734;2024-02-15T12:47:49;100177.31;;;10.73;98.09
51759;BME280;66684;47.568;18.734;2024-02-15T12:50:16;100168.06;;;10.78;100.00
51759;BME280;66684;47.568;18.734;2024-02-15T12:52:45;100167.53;;;10.68;99.69